sensor_id;sensor_type;location;lat;lon;timestamp;P1;durP1;ratioP1;P2;durP2;ratioP2
49384;SDS011;36795;45.028;38.968;2023-06-10T00:01:40;29.10;;;5.10;;
49384;SDS011;36795;45.028;38.968;2023-06-10T00:04:28;33.42;;;6.10;;
49384;SDS011;36795;45.028;38.968;2023-06-10T00:07:14;32.85;;;6.68;;
49384;SDS011;36795;45.028;38.968;2023-06-10T00:10:01;31.27;;;5.53;;
49384;SDS011;36795;45.028;38.968;2023-06-10T00:12:50;27.75;;;5.62;;
49384;SDS011;36795;45.028;38.968;2023-06-10T00:15:37;27.42;;;5.22;;
49384;SDS011;36795;45.028;38.968;2023-06-10T00:18:23;24.37;;;5.45;;
49384;SDS011;36795;45.028;38.968;2023-06-10T00:21:12;32.13;;;6.00;;
49384;SDS011;36795;45.028;38.968;2023-06-10T00:23:58;27.80;;;6.32;;
49384;SDS011;36795;45.028;38.968;2023-06-10T00:26:48;29.12;;;6.43;;
49384;SDS011;36795;45.028;38.968;2023-06-10T00:29:34;29.10;;;5.85;;
49384;SDS011;36795;45.028;38.968;2023-06-10T00:32:21;32.10;;;6.45;;
49384;SDS011;36795;45.028;38.968;2023-06-10T00:35:06;32.15;;;6.45;;
49384;SDS011;36795;45.028;38.968;2023-06-10T00:37:53;32.72;;;5.75;;
49384;SDS011;36795;45.028;38.968;2023-06-10T00:40:39;30.62;;;5.68;;
49384;SDS011;36795;45.028;38.968;2023-06-10T00:43:28;33.20;;;5.22;;
49384;SDS011;36795;45.028;38.968;2023-06-10T00:46:14;26.20;;;5.40;;
49384;SDS011;36795;45.028;38.968;2023-06-10T00:49:02;32.47;;;5.78;;
49384;SDS011;36795;45.028;38.968;2023-06-10T00:51:48;35.22;;;6.20;;
49384;SDS011;36795;45.028;38.968;2023-06-10T00:54:34;36.03;;;6.18;;
49384;SDS011;36795;45.028;38.968;2023-06-10T00:57:21;39.20;;;6.78;;
49384;SDS011;36795;45.028;38.968;2023-06-10T01:00:07;34.33;;;5.85;;
49384;SDS011;36795;45.028;38.968;2023-06-10T01:02:54;31.12;;;5.53;;
49384;SDS011;36795;45.028;38.968;2023-06-10T01:05:40;34.92;;;6.03;;
49384;SDS011;36795;45.028;38.968;2023-06-10T01:08:45;29.40;;;5.70;;
49384;SDS011;36795;45.028;38.968;2023-06-10T01:11:41;33.40;;;5.90;;
49384;SDS011;36795;45.028;38.968;2023-06-10T01:14:32;27.60;;;5.60;;
49384;SDS011;36795;45.028;38.968;2023-06-10T01:17:19;32.83;;;5.82;;
49384;SDS011;36795;45.028;38.968;2023-06-10T01:20:05;30.08;;;5.32;;
49384;SDS011;36795;45.028;38.968;2023-06-10T01:23:00;29.98;;;5.30;;
49384;SDS011;36795;45.028;38.968;2023-06-10T01:25:50;30.23;;;5.62;;
49384;SDS011;36795;45.028;38.968;2023-06-10T01:28:49;31.15;;;5.53;;
49384;SDS011;36795;45.028;38.968;2023-06-10T01:31:49;33.33;;;5.72;;
49384;SDS011;36795;45.028;38.968;2023-06-10T01:34:44;30.65;;;5.43;;
49384;SDS011;36795;45.028;38.968;2023-06-10T01:37:32;32.80;;;6.28;;
49384;SDS011;36795;45.028;38.968;2023-06-10T01:40:20;32.03;;;5.50;;
49384;SDS011;36795;45.028;38.968;2023-06-10T01:43:06;32.13;;;5.55;;
49384;SDS011;36795;45.028;38.968;2023-06-10T01:45:52;33.67;;;6.15;;
49384;SDS011;36795;45.028;38.968;2023-06-10T01:48:38;34.58;;;5.35;;
49384;SDS011;36795;45.028;38.968;2023-06-10T01:51:24;27.90;;;4.82;;
49384;SDS011;36795;45.028;38.968;2023-06-10T01:54:10;31.50;;;5.70;;
49384;SDS011;36795;45.028;38.968;2023-06-10T01:56:56;41.25;;;6.00;;
49384;SDS011;36795;45.028;38.968;2023-06-10T01:59:41;31.37;;;5.60;;
49384;SDS011;36795;45.028;38.968;2023-06-10T02:02:29;26.92;;;5.35;;
49384;SDS011;36795;45.028;38.968;2023-06-10T02:05:15;29.67;;;5.28;;
49384;SDS011;36795;45.028;38.968;2023-06-10T02:08:01;32.83;;;5.62;;
49384;SDS011;36795;45.028;38.968;2023-06-10T02:10:47;28.70;;;5.15;;
49384;SDS011;36795;45.028;38.968;2023-06-10T02:13:33;30.00;;;5.18;;
49384;SDS011;36795;45.028;38.968;2023-06-10T02:16:19;25.85;;;5.12;;
49384;SDS011;36795;45.028;38.968;2023-06-10T02:19:06;28.50;;;5.35;;
49384;SDS011;36795;45.028;38.968;2023-06-10T02:21:53;29.30;;;5.47;;
49384;SDS011;36795;45.028;38.968;2023-06-10T02:24:39;30.50;;;5.72;;
49384;SDS011;36795;45.028;38.968;2023-06-10T02:27:26;28.27;;;5.37;;
49384;SDS011;36795;45.028;38.968;2023-06-10T02:30:13;29.42;;;5.47;;
49384;SDS011;36795;45.028;38.968;2023-06-10T02:33:00;28.77;;;4.85;;
49384;SDS011;36795;45.028;38.968;2023-06-10T02:35:47;28.77;;;5.05;;
49384;SDS011;36795;45.028;38.968;2023-06-10T02:38:34;35.42;;;5.93;;
49384;SDS011;36795;45.028;38.968;2023-06-10T02:41:20;31.10;;;5.80;;
49384;SDS011;36795;45.028;38.968;2023-06-10T02:44:09;27.17;;;4.72;;
49384;SDS011;36795;45.028;38.968;2023-06-10T02:46:55;26.65;;;6.10;;
49384;SDS011;36795;45.028;38.968;2023-06-10T02:49:41;25.33;;;5.32;;
49384;SDS011;36795;45.028;38.968;2023-06-10T02:52:27;32.92;;;5.85;;
49384;SDS011;36795;45.028;38.968;2023-06-10T02:55:14;26.30;;;6.00;;
49384;SDS011;36795;45.028;38.968;2023-06-10T02:58:01;31.17;;;5.53;;
49384;SDS011;36795;45.028;38.968;2023-06-10T03:00:48;35.60;;;5.43;;
49384;SDS011;36795;45.028;38.968;2023-06-10T03:03:34;31.67;;;6.53;;
49384;SDS011;36795;45.028;38.968;2023-06-10T03:06:23;23.62;;;5.45;;
49384;SDS011;36795;45.028;38.968;2023-06-10T03:09:11;22.48;;;4.50;;
49384;SDS011;36795;45.028;38.968;2023-06-10T03:11:58;27.67;;;5.32;;
49384;SDS011;36795;45.028;38.968;2023-06-10T03:14:47;31.10;;;5.60;;
49384;SDS011;36795;45.028;38.968;2023-06-10T03:17:34;30.50;;;4.97;;
49384;SDS011;36795;45.028;38.968;2023-06-10T03:20:20;27.00;;;4.87;;
49384;SDS011;36795;45.028;38.968;2023-06-10T03:23:08;32.05;;;5.53;;
49384;SDS011;36795;45.028;38.968;2023-06-10T03:25:54;27.77;;;5.43;;
49384;SDS011;36795;45.028;38.968;2023-06-10T03:28:41;29.48;;;5.37;;
49384;SDS011;36795;45.028;38.968;2023-06-10T03:31:27;27.00;;;5.05;;
49384;SDS011;36795;45.028;38.968;2023-06-10T03:34:13;28.40;;;5.30;;
49384;SDS011;36795;45.028;38.968;2023-06-10T03:37:00;24.75;;;5.40;;
49384;SDS011;36795;45.028;38.968;2023-06-10T03:39:46;32.10;;;6.05;;
49384;SDS011;36795;45.028;38.968;2023-06-10T03:42:32;30.80;;;5.65;;
49384;SDS011;36795;45.028;38.968;2023-06-10T03:45:18;30.15;;;5.62;;
49384;SDS011;36795;45.028;38.968;2023-06-10T03:48:05;27.10;;;5.95;;
49384;SDS011;36795;45.028;38.968;2023-06-10T03:50:52;24.75;;;4.80;;
49384;SDS011;36795;45.028;38.968;2023-06-10T03:53:38;31.45;;;6.15;;
49384;SDS011;36795;45.028;38.968;2023-06-10T03:56:24;31.27;;;5.05;;
49384;SDS011;36795;45.028;38.968;2023-06-10T03:59:11;30.40;;;5.50;;
49384;SDS011;36795;45.028;38.968;2023-06-10T04:01:57;34.78;;;5.60;;
49384;SDS011;36795;45.028;38.968;2023-06-10T04:04:43;30.37;;;6.15;;
49384;SDS011;36795;45.028;38.968;2023-06-10T04:07:29;28.33;;;4.85;;
49384;SDS011;36795;45.028;38.968;2023-06-10T04:10:16;25.50;;;5.22;;
49384;SDS011;36795;45.028;38.968;2023-06-10T04:13:02;23.75;;;4.72;;
49384;SDS011;36795;45.028;38.968;2023-06-10T04:15:50;24.58;;;5.12;;
49384;SDS011;36795;45.028;38.968;2023-06-10T04:18:35;29.08;;;5.22;;
49384;SDS011;36795;45.028;38.968;2023-06-10T04:21:22;26.20;;;5.37;;
49384;SDS011;36795;45.028;38.968;2023-06-10T04:24:10;29.17;;;4.97;;
49384;SDS011;36795;45.028;38.968;2023-06-10T04:26:57;27.62;;;5.12;;
49384;SDS011;36795;45.028;38.968;2023-06-10T04:29:42;28.95;;;6.20;;
49384;SDS011;36795;45.028;38.968;2023-06-10T04:32:29;28.08;;;5.07;;
49384;SDS011;36795;45.028;38.968;2023-06-10T04:35:15;25.92;;;5.45;;
49384;SDS011;36795;45.028;38.968;2023-06-10T04:38:02;25.90;;;5.40;;
49384;SDS011;36795;45.028;38.968;2023-06-10T04:40:48;23.87;;;4.90;;
49384;SDS011;36795;45.028;38.968;2023-06-10T04:43:35;30.58;;;5.78;;
49384;SDS011;36795;45.028;38.968;2023-06-10T04:46:21;28.60;;;5.35;;
49384;SDS011;36795;45.028;38.968;2023-06-10T04:49:07;27.70;;;6.78;;
49384;SDS011;36795;45.028;38.968;2023-06-10T04:51:53;26.20;;;4.95;;
49384;SDS011;36795;45.028;38.968;2023-06-10T04:54:40;44.22;;;24.73;;
49384;SDS011;36795;45.028;38.968;2023-06-10T04:57:26;25.70;;;5.15;;
49384;SDS011;36795;45.028;38.968;2023-06-10T05:00:12;29.05;;;6.00;;
49384;SDS011;36795;45.028;38.968;2023-06-10T05:02:59;32.05;;;5.43;;
49384;SDS011;36795;45.028;38.968;2023-06-10T05:05:45;31.25;;;6.57;;
49384;SDS011;36795;45.028;38.968;2023-06-10T05:08:30;29.02;;;6.15;;
49384;SDS011;36795;45.028;38.968;2023-06-10T05:11:17;25.00;;;5.82;;
49384;SDS011;36795;45.028;38.968;2023-06-10T05:14:02;28.20;;;5.62;;
49384;SDS011;36795;45.028;38.968;2023-06-10T05:16:49;27.27;;;5.68;;
49384;SDS011;36795;45.028;38.968;2023-06-10T05:19:35;24.60;;;5.43;;
49384;SDS011;36795;45.028;38.968;2023-06-10T05:22:22;29.92;;;5.87;;
49384;SDS011;36795;45.028;38.968;2023-06-10T05:25:12;27.33;;;5.95;;
49384;SDS011;36795;45.028;38.968;2023-06-10T05:27:58;28.17;;;5.50;;
49384;SDS011;36795;45.028;38.968;2023-06-10T05:30:44;29.95;;;6.15;;
49384;SDS011;36795;45.028;38.968;2023-06-10T05:33:31;33.15;;;6.62;;
49384;SDS011;36795;45.028;38.968;2023-06-10T05:36:17;24.65;;;5.32;;
49384;SDS011;36795;45.028;38.968;2023-06-10T05:39:03;28.02;;;6.20;;
49384;SDS011;36795;45.028;38.968;2023-06-10T05:41:49;35.13;;;5.90;;
49384;SDS011;36795;45.028;38.968;2023-06-10T05:44:35;24.98;;;5.28;;
49384;SDS011;36795;45.028;38.968;2023-06-10T05:47:21;28.27;;;6.03;;
49384;SDS011;36795;45.028;38.968;2023-06-10T05:50:08;31.80;;;5.75;;
49384;SDS011;36795;45.028;38.968;2023-06-10T05:52:54;24.75;;;5.60;;
49384;SDS011;36795;45.028;38.968;2023-06-10T05:55:44;26.95;;;5.85;;
49384;SDS011;36795;45.028;38.968;2023-06-10T05:58:30;30.58;;;6.25;;
49384;SDS011;36795;45.028;38.968;2023-06-10T06:01:16;27.30;;;5.40;;
49384;SDS011;36795;45.028;38.968;2023-06-10T06:04:03;28.60;;;5.53;;
49384;SDS011;36795;45.028;38.968;2023-06-10T06:06:49;34.20;;;6.32;;
49384;SDS011;36795;45.028;38.968;2023-06-10T06:09:35;28.30;;;6.32;;
49384;SDS011;36795;45.028;38.968;2023-06-10T06:12:21;27.40;;;5.97;;
49384;SDS011;36795;45.028;38.968;2023-06-10T06:15:08;24.77;;;5.53;;
49384;SDS011;36795;45.028;38.968;2023-06-10T06:17:54;24.00;;;6.12;;
49384;SDS011;36795;45.028;38.968;2023-06-10T06:20:41;31.55;;;6.37;;
49384;SDS011;36795;45.028;38.968;2023-06-10T06:23:27;29.63;;;5.93;;
49384;SDS011;36795;45.028;38.968;2023-06-10T06:26:13;27.98;;;6.57;;
49384;SDS011;36795;45.028;38.968;2023-06-10T06:28:59;28.25;;;6.45;;
49384;SDS011;36795;45.028;38.968;2023-06-10T06:31:46;27.23;;;5.68;;
49384;SDS011;36795;45.028;38.968;2023-06-10T06:34:31;30.27;;;5.85;;
49384;SDS011;36795;45.028;38.968;2023-06-10T06:37:18;31.12;;;5.97;;
49384;SDS011;36795;45.028;38.968;2023-06-10T06:40:05;31.80;;;7.35;;
49384;SDS011;36795;45.028;38.968;2023-06-10T06:42:52;31.08;;;7.35;;
49384;SDS011;36795;45.028;38.968;2023-06-10T06:45:39;26.73;;;5.93;;
49384;SDS011;36795;45.028;38.968;2023-06-10T06:48:26;31.08;;;6.07;;
49384;SDS011;36795;45.028;38.968;2023-06-10T06:51:11;32.50;;;5.80;;
49384;SDS011;36795;45.028;38.968;2023-06-10T06:53:57;29.87;;;6.65;;
49384;SDS011;36795;45.028;38.968;2023-06-10T06:56:43;35.10;;;7.20;;
49384;SDS011;36795;45.028;38.968;2023-06-10T06:59:29;28.48;;;6.50;;
49384;SDS011;36795;45.028;38.968;2023-06-10T07:02:15;28.35;;;5.85;;
49384;SDS011;36795;45.028;38.968;2023-06-10T07:05:01;30.65;;;6.95;;
49384;SDS011;36795;45.028;38.968;2023-06-10T07:07:48;29.92;;;7.22;;
49384;SDS011;36795;45.028;38.968;2023-06-10T07:10:39;31.10;;;6.15;;
49384;SDS011;36795;45.028;38.968;2023-06-10T07:13:25;24.70;;;6.25;;
49384;SDS011;36795;45.028;38.968;2023-06-10T07:16:11;31.87;;;6.25;;
49384;SDS011;36795;45.028;38.968;2023-06-10T07:18:57;24.65;;;5.78;;
49384;SDS011;36795;45.028;38.968;2023-06-10T07:21:44;29.00;;;5.87;;
49384;SDS011;36795;45.028;38.968;2023-06-10T07:24:29;32.17;;;6.57;;
49384;SDS011;36795;45.028;38.968;2023-06-10T07:27:15;28.20;;;7.53;;
49384;SDS011;36795;45.028;38.968;2023-06-10T07:30:02;29.48;;;6.55;;
49384;SDS011;36795;45.028;38.968;2023-06-10T07:32:50;29.77;;;5.95;;
49384;SDS011;36795;45.028;38.968;2023-06-10T07:35:36;28.58;;;6.18;;
49384;SDS011;36795;45.028;38.968;2023-06-10T07:38:24;25.55;;;6.07;;
49384;SDS011;36795;45.028;38.968;2023-06-10T07:41:10;28.42;;;6.82;;
49384;SDS011;36795;45.028;38.968;2023-06-10T07:43:57;29.25;;;6.45;;
49384;SDS011;36795;45.028;38.968;2023-06-10T07:46:42;33.03;;;6.45;;
49384;SDS011;36795;45.028;38.968;2023-06-10T07:49:29;26.90;;;6.37;;
49384;SDS011;36795;45.028;38.968;2023-06-10T07:52:15;27.83;;;6.90;;
49384;SDS011;36795;45.028;38.968;2023-06-10T07:55:01;27.90;;;6.43;;
49384;SDS011;36795;45.028;38.968;2023-06-10T07:57:47;29.58;;;6.03;;
49384;SDS011;36795;45.028;38.968;2023-06-10T08:00:33;23.77;;;5.82;;
49384;SDS011;36795;45.028;38.968;2023-06-10T08:03:19;27.40;;;7.25;;
49384;SDS011;36795;45.028;38.968;2023-06-10T08:06:05;31.08;;;6.97;;
49384;SDS011;36795;45.028;38.968;2023-06-10T08:08:52;29.75;;;7.22;;
49384;SDS011;36795;45.028;38.968;2023-06-10T08:11:38;30.20;;;7.35;;
49384;SDS011;36795;45.028;38.968;2023-06-10T08:14:24;26.58;;;6.40;;
49384;SDS011;36795;45.028;38.968;2023-06-10T08:17:10;21.23;;;5.87;;
49384;SDS011;36795;45.028;38.968;2023-06-10T08:19:56;25.77;;;6.12;;
49384;SDS011;36795;45.028;38.968;2023-06-10T08:22:42;29.50;;;7.07;;
49384;SDS011;36795;45.028;38.968;2023-06-10T08:25:28;30.27;;;6.47;;
49384;SDS011;36795;45.028;38.968;2023-06-10T08:28:14;25.17;;;6.43;;
49384;SDS011;36795;45.028;38.968;2023-06-10T08:31:00;30.80;;;6.60;;
49384;SDS011;36795;45.028;38.968;2023-06-10T08:33:46;32.80;;;7.07;;
49384;SDS011;36795;45.028;38.968;2023-06-10T08:36:32;26.50;;;6.80;;
49384;SDS011;36795;45.028;38.968;2023-06-10T08:39:19;27.40;;;7.07;;
49384;SDS011;36795;45.028;38.968;2023-06-10T08:42:19;22.62;;;5.97;;
49384;SDS011;36795;45.028;38.968;2023-06-10T08:45:12;28.38;;;7.72;;
49384;SDS011;36795;45.028;38.968;2023-06-10T08:48:04;26.65;;;7.20;;
49384;SDS011;36795;45.028;38.968;2023-06-10T08:50:54;32.03;;;7.95;;
49384;SDS011;36795;45.028;38.968;2023-06-10T08:53:50;27.02;;;6.40;;
49384;SDS011;36795;45.028;38.968;2023-06-10T08:56:41;23.17;;;6.53;;
49384;SDS011;36795;45.028;38.968;2023-06-10T08:59:29;24.95;;;6.93;;
49384;SDS011;36795;45.028;38.968;2023-06-10T09:02:15;26.83;;;6.60;;
49384;SDS011;36795;45.028;38.968;2023-06-10T09:05:05;24.08;;;6.35;;
49384;SDS011;36795;45.028;38.968;2023-06-10T09:07:52;26.05;;;6.70;;
49384;SDS011;36795;45.028;38.968;2023-06-10T09:10:39;22.95;;;6.28;;
49384;SDS011;36795;45.028;38.968;2023-06-10T09:13:26;26.37;;;6.82;;
49384;SDS011;36795;45.028;38.968;2023-06-10T09:16:12;31.17;;;7.40;;
49384;SDS011;36795;45.028;38.968;2023-06-10T09:18:59;26.75;;;7.57;;
49384;SDS011;36795;45.028;38.968;2023-06-10T09:21:45;25.88;;;6.60;;
49384;SDS011;36795;45.028;38.968;2023-06-10T09:24:31;24.65;;;7.32;;
49384;SDS011;36795;45.028;38.968;2023-06-10T09:27:18;26.55;;;6.28;;
49384;SDS011;36795;45.028;38.968;2023-06-10T09:30:04;23.33;;;6.55;;
49384;SDS011;36795;45.028;38.968;2023-06-10T09:32:52;24.73;;;6.00;;
49384;SDS011;36795;45.028;38.968;2023-06-10T09:35:47;26.33;;;6.87;;
49384;SDS011;36795;45.028;38.968;2023-06-10T09:41:20;22.85;;;6.18;;
49384;SDS011;36795;45.028;38.968;2023-06-10T09:44:13;30.80;;;7.22;;
49384;SDS011;36795;45.028;38.968;2023-06-10T09:47:03;27.45;;;5.93;;
49384;SDS011;36795;45.028;38.968;2023-06-10T09:49:50;26.42;;;7.20;;
49384;SDS011;36795;45.028;38.968;2023-06-10T09:52:38;28.12;;;6.10;;
49384;SDS011;36795;45.028;38.968;2023-06-10T09:55:24;23.58;;;7.25;;
49384;SDS011;36795;45.028;38.968;2023-06-10T09:58:10;25.90;;;6.70;;
49384;SDS011;36795;45.028;38.968;2023-06-10T10:00:56;25.52;;;6.50;;
49384;SDS011;36795;45.028;38.968;2023-06-10T10:03:43;23.23;;;6.18;;
49384;SDS011;36795;45.028;38.968;2023-06-10T10:06:34;26.37;;;6.68;;
49384;SDS011;36795;45.028;38.968;2023-06-10T10:09:23;23.77;;;6.75;;
49384;SDS011;36795;45.028;38.968;2023-06-10T10:12:12;22.92;;;6.47;;
49384;SDS011;36795;45.028;38.968;2023-06-10T10:14:59;25.48;;;6.43;;
49384;SDS011;36795;45.028;38.968;2023-06-10T10:17:49;28.10;;;6.55;;
49384;SDS011;36795;45.028;38.968;2023-06-10T10:21:04;27.37;;;6.62;;
49384;SDS011;36795;45.028;38.968;2023-06-10T10:24:07;25.83;;;6.93;;
49384;SDS011;36795;45.028;38.968;2023-06-10T10:27:01;21.50;;;7.10;;
49384;SDS011;36795;45.028;38.968;2023-06-10T10:29:56;24.27;;;5.87;;
49384;SDS011;36795;45.028;38.968;2023-06-10T10:35:45;36.75;;;8.38;;
49384;SDS011;36795;45.028;38.968;2023-06-10T10:38:32;27.25;;;7.12;;
49384;SDS011;36795;45.028;38.968;2023-06-10T10:41:18;27.85;;;6.55;;
49384;SDS011;36795;45.028;38.968;2023-06-10T10:44:06;28.58;;;6.65;;
49384;SDS011;36795;45.028;38.968;2023-06-10T10:46:56;26.37;;;6.15;;
49384;SDS011;36795;45.028;38.968;2023-06-10T10:49:48;28.42;;;6.55;;
49384;SDS011;36795;45.028;38.968;2023-06-10T10:52:51;29.95;;;5.82;;
49384;SDS011;36795;45.028;38.968;2023-06-10T10:55:39;27.15;;;6.80;;
49384;SDS011;36795;45.028;38.968;2023-06-10T10:58:25;27.08;;;7.15;;
49384;SDS011;36795;45.028;38.968;2023-06-10T11:01:12;26.27;;;6.78;;
49384;SDS011;36795;45.028;38.968;2023-06-10T11:04:01;26.73;;;6.37;;
49384;SDS011;36795;45.028;38.968;2023-06-10T11:06:53;27.35;;;6.68;;
49384;SDS011;36795;45.028;38.968;2023-06-10T11:15:40;29.50;;;8.30;;
49384;SDS011;36795;45.028;38.968;2023-06-10T11:18:38;23.45;;;6.45;;
49384;SDS011;36795;45.028;38.968;2023-06-10T11:21:24;26.35;;;6.53;;
49384;SDS011;36795;45.028;38.968;2023-06-10T11:24:14;22.08;;;6.45;;
49384;SDS011;36795;45.028;38.968;2023-06-10T11:32:50;28.35;;;6.55;;
49384;SDS011;36795;45.028;38.968;2023-06-10T11:35:40;24.37;;;6.30;;
49384;SDS011;36795;45.028;38.968;2023-06-10T11:38:26;26.90;;;5.87;;
49384;SDS011;36795;45.028;38.968;2023-06-10T11:41:14;20.88;;;5.82;;
49384;SDS011;36795;45.028;38.968;2023-06-10T11:44:18;23.73;;;6.05;;
49384;SDS011;36795;45.028;38.968;2023-06-10T11:47:04;23.40;;;5.90;;
49384;SDS011;36795;45.028;38.968;2023-06-10T11:49:56;24.37;;;6.37;;
49384;SDS011;36795;45.028;38.968;2023-06-10T11:52:43;22.20;;;6.10;;
49384;SDS011;36795;45.028;38.968;2023-06-10T11:55:41;28.10;;;7.20;;
49384;SDS011;36795;45.028;38.968;2023-06-10T11:58:29;22.67;;;5.68;;
49384;SDS011;36795;45.028;38.968;2023-06-10T12:01:19;28.85;;;6.82;;
49384;SDS011;36795;45.028;38.968;2023-06-10T12:04:07;23.55;;;6.00;;
49384;SDS011;36795;45.028;38.968;2023-06-10T12:06:54;24.10;;;6.40;;
49384;SDS011;36795;45.028;38.968;2023-06-10T12:09:41;24.52;;;6.72;;
49384;SDS011;36795;45.028;38.968;2023-06-10T12:12:26;23.60;;;6.78;;
49384;SDS011;36795;45.028;38.968;2023-06-10T12:15:19;25.80;;;6.57;;
49384;SDS011;36795;45.028;38.968;2023-06-10T12:18:16;28.73;;;6.07;;
49384;SDS011;36795;45.028;38.968;2023-06-10T12:21:19;24.55;;;5.87;;
49384;SDS011;36795;45.028;38.968;2023-06-10T12:24:08;21.27;;;5.32;;
49384;SDS011;36795;45.028;38.968;2023-06-10T12:26:56;23.12;;;6.47;;
49384;SDS011;36795;45.028;38.968;2023-06-10T12:29:50;20.98;;;5.43;;
49384;SDS011;36795;45.028;38.968;2023-06-10T12:32:43;22.80;;;5.70;;
49384;SDS011;36795;45.028;38.968;2023-06-10T12:35:30;24.08;;;5.30;;
49384;SDS011;36795;45.028;38.968;2023-06-10T12:38:23;23.75;;;5.68;;
49384;SDS011;36795;45.028;38.968;2023-06-10T12:41:13;26.05;;;5.40;;
49384;SDS011;36795;45.028;38.968;2023-06-10T12:43:59;21.98;;;5.22;;
49384;SDS011;36795;45.028;38.968;2023-06-10T12:46:53;22.67;;;5.72;;
49384;SDS011;36795;45.028;38.968;2023-06-10T12:49:40;30.30;;;6.07;;
49384;SDS011;36795;45.028;38.968;2023-06-10T12:52:26;21.37;;;5.07;;
49384;SDS011;36795;45.028;38.968;2023-06-10T12:55:12;18.42;;;5.15;;
49384;SDS011;36795;45.028;38.968;2023-06-10T12:57:58;25.37;;;6.03;;
49384;SDS011;36795;45.028;38.968;2023-06-10T13:00:47;22.02;;;5.50;;
49384;SDS011;36795;45.028;38.968;2023-06-10T13:03:33;22.10;;;5.15;;
49384;SDS011;36795;45.028;38.968;2023-06-10T13:06:20;19.48;;;5.28;;
49384;SDS011;36795;45.028;38.968;2023-06-10T13:09:06;22.05;;;6.90;;
49384;SDS011;36795;45.028;38.968;2023-06-10T13:11:52;25.48;;;5.70;;
49384;SDS011;36795;45.028;38.968;2023-06-10T13:14:38;27.13;;;6.07;;
49384;SDS011;36795;45.028;38.968;2023-06-10T13:17:25;33.00;;;7.07;;
49384;SDS011;36795;45.028;38.968;2023-06-10T13:20:10;22.13;;;6.22;;
49384;SDS011;36795;45.028;38.968;2023-06-10T13:22:57;30.08;;;6.05;;
49384;SDS011;36795;45.028;38.968;2023-06-10T13:25:42;23.30;;;6.35;;
49384;SDS011;36795;45.028;38.968;2023-06-10T13:28:29;29.87;;;8.57;;
49384;SDS011;36795;45.028;38.968;2023-06-10T13:31:16;26.77;;;8.75;;
49384;SDS011;36795;45.028;38.968;2023-06-10T13:34:03;27.98;;;9.80;;
49384;SDS011;36795;45.028;38.968;2023-06-10T13:36:49;33.17;;;9.63;;
49384;SDS011;36795;45.028;38.968;2023-06-10T13:39:35;25.23;;;8.10;;
49384;SDS011;36795;45.028;38.968;2023-06-10T13:42:21;29.73;;;10.50;;
49384;SDS011;36795;45.028;38.968;2023-06-10T13:45:07;25.95;;;9.07;;
49384;SDS011;36795;45.028;38.968;2023-06-10T13:47:54;26.67;;;9.77;;
49384;SDS011;36795;45.028;38.968;2023-06-10T13:50:40;28.90;;;10.50;;
49384;SDS011;36795;45.028;38.968;2023-06-10T13:53:30;26.55;;;10.02;;
49384;SDS011;36795;45.028;38.968;2023-06-10T13:56:17;27.90;;;10.75;;
49384;SDS011;36795;45.028;38.968;2023-06-10T13:59:03;29.48;;;11.63;;
49384;SDS011;36795;45.028;38.968;2023-06-10T14:01:49;27.95;;;10.95;;
49384;SDS011;36795;45.028;38.968;2023-06-10T14:04:36;26.85;;;10.93;;
49384;SDS011;36795;45.028;38.968;2023-06-10T14:07:21;26.35;;;10.52;;
49384;SDS011;36795;45.028;38.968;2023-06-10T14:10:08;31.65;;;12.15;;
49384;SDS011;36795;45.028;38.968;2023-06-10T14:12:54;31.90;;;12.07;;
49384;SDS011;36795;45.028;38.968;2023-06-10T14:15:40;34.28;;;12.70;;
49384;SDS011;36795;45.028;38.968;2023-06-10T14:18:26;29.65;;;11.68;;
49384;SDS011;36795;45.028;38.968;2023-06-10T14:21:12;29.92;;;12.68;;
49384;SDS011;36795;45.028;38.968;2023-06-10T14:23:58;34.08;;;13.88;;
49384;SDS011;36795;45.028;38.968;2023-06-10T14:26:44;30.42;;;13.27;;
49384;SDS011;36795;45.028;38.968;2023-06-10T14:29:30;35.60;;;13.07;;
49384;SDS011;36795;45.028;38.968;2023-06-10T14:32:17;29.27;;;13.62;;
49384;SDS011;36795;45.028;38.968;2023-06-10T14:35:03;31.50;;;15.07;;
49384;SDS011;36795;45.028;38.968;2023-06-10T14:37:49;35.83;;;16.08;;
49384;SDS011;36795;45.028;38.968;2023-06-10T14:40:35;31.67;;;16.60;;
49384;SDS011;36795;45.028;38.968;2023-06-10T14:43:21;32.97;;;15.35;;
49384;SDS011;36795;45.028;38.968;2023-06-10T14:46:07;36.55;;;17.60;;
49384;SDS011;36795;45.028;38.968;2023-06-10T14:48:53;34.00;;;17.73;;
49384;SDS011;36795;45.028;38.968;2023-06-10T14:51:39;36.78;;;18.35;;
49384;SDS011;36795;45.028;38.968;2023-06-10T14:54:25;30.30;;;15.88;;
49384;SDS011;36795;45.028;38.968;2023-06-10T14:57:11;29.23;;;14.00;;
49384;SDS011;36795;45.028;38.968;2023-06-10T14:59:57;27.33;;;12.55;;
49384;SDS011;36795;45.028;38.968;2023-06-10T15:02:43;30.90;;;14.45;;
49384;SDS011;36795;45.028;38.968;2023-06-10T15:05:29;30.00;;;14.13;;
49384;SDS011;36795;45.028;38.968;2023-06-10T15:08:15;32.58;;;15.23;;
49384;SDS011;36795;45.028;38.968;2023-06-10T15:11:01;28.60;;;13.88;;
49384;SDS011;36795;45.028;38.968;2023-06-10T15:13:47;29.65;;;13.05;;
49384;SDS011;36795;45.028;38.968;2023-06-10T15:16:33;30.12;;;13.23;;
49384;SDS011;36795;45.028;38.968;2023-06-10T15:19:19;30.73;;;13.38;;
49384;SDS011;36795;45.028;38.968;2023-06-10T15:22:05;25.83;;;11.73;;
49384;SDS011;36795;45.028;38.968;2023-06-10T15:24:51;26.35;;;11.02;;
49384;SDS011;36795;45.028;38.968;2023-06-10T15:27:38;28.87;;;11.05;;
49384;SDS011;36795;45.028;38.968;2023-06-10T15:30:24;29.33;;;12.25;;
49384;SDS011;36795;45.028;38.968;2023-06-10T15:33:10;28.05;;;12.82;;
49384;SDS011;36795;45.028;38.968;2023-06-10T15:35:56;29.77;;;15.63;;
49384;SDS011;36795;45.028;38.968;2023-06-10T15:38:42;31.50;;;16.95;;
49384;SDS011;36795;45.028;38.968;2023-06-10T15:41:28;28.25;;;11.90;;
49384;SDS011;36795;45.028;38.968;2023-06-10T15:44:14;27.45;;;11.65;;
49384;SDS011;36795;45.028;38.968;2023-06-10T15:47:00;27.05;;;10.02;;
49384;SDS011;36795;45.028;38.968;2023-06-10T15:49:47;24.17;;;9.50;;
49384;SDS011;36795;45.028;38.968;2023-06-10T15:52:32;25.60;;;9.60;;
49384;SDS011;36795;45.028;38.968;2023-06-10T15:55:19;26.58;;;9.00;;
49384;SDS011;36795;45.028;38.968;2023-06-10T15:58:05;26.85;;;9.80;;
49384;SDS011;36795;45.028;38.968;2023-06-10T16:00:51;25.98;;;9.40;;
49384;SDS011;36795;45.028;38.968;2023-06-10T16:03:37;27.05;;;10.95;;
49384;SDS011;36795;45.028;38.968;2023-06-10T16:06:23;24.98;;;9.20;;
49384;SDS011;36795;45.028;38.968;2023-06-10T16:09:09;25.50;;;9.38;;
49384;SDS011;36795;45.028;38.968;2023-06-10T16:11:55;26.60;;;9.45;;
49384;SDS011;36795;45.028;38.968;2023-06-10T16:14:41;24.40;;;8.73;;
49384;SDS011;36795;45.028;38.968;2023-06-10T16:17:27;23.77;;;8.73;;
49384;SDS011;36795;45.028;38.968;2023-06-10T16:20:14;23.87;;;8.65;;
49384;SDS011;36795;45.028;38.968;2023-06-10T16:22:59;25.12;;;9.48;;
49384;SDS011;36795;45.028;38.968;2023-06-10T16:25:49;24.98;;;9.27;;
49384;SDS011;36795;45.028;38.968;2023-06-10T16:28:35;22.45;;;9.18;;
49384;SDS011;36795;45.028;38.968;2023-06-10T16:31:21;24.05;;;8.70;;
49384;SDS011;36795;45.028;38.968;2023-06-10T16:34:07;21.52;;;8.32;;
49384;SDS011;36795;45.028;38.968;2023-06-10T16:36:53;20.25;;;8.10;;